createdAt,value
2018-06-30T00:00:06.624Z,4.40
2018-06-30T00:01:06.646Z,4.20
2018-06-30T00:02:06.668Z,4.20
2018-06-30T00:03:06.690Z,4.60
2018-06-30T00:04:06.712Z,4.40
2018-06-30T00:05:06.729Z,4.50
2018-06-30T00:06:06.755Z,4.40
2018-06-30T00:07:06.779Z,4.40
2018-06-30T00:08:06.798Z,4.40
2018-06-30T00:09:06.818Z,4.30
2018-06-30T00:10:06.842Z,4.50
2018-06-30T00:11:06.861Z,4.40
2018-06-30T00:12:06.883Z,4.50
2018-06-30T00:13:06.907Z,4.40
2018-06-30T00:14:06.926Z,4.40
2018-06-30T00:15:06.951Z,4.50
2018-06-30T00:16:06.972Z,4.20
2018-06-30T00:17:06.995Z,4.40
2018-06-30T00:18:07.014Z,4.70
2018-06-30T00:19:07.039Z,4.80
2018-06-30T00:20:07.057Z,4.40
2018-06-30T00:21:07.080Z,4.20
2018-06-30T00:22:07.101Z,4.70
2018-06-30T00:23:07.118Z,5.30
2018-06-30T00:24:07.142Z,4.70
2018-06-30T00:25:07.166Z,4.40
2018-06-30T00:26:07.184Z,4.90
2018-06-30T00:27:07.209Z,4.70
2018-06-30T00:28:07.230Z,5.00
2018-06-30T00:29:07.252Z,5.00
2018-06-30T00:30:07.273Z,4.80
2018-06-30T00:31:07.295Z,4.20
2018-06-30T00:32:07.319Z,4.90
2018-06-30T00:33:07.335Z,5.50
2018-06-30T00:34:07.359Z,4.80
2018-06-30T00:35:07.380Z,5.50
2018-06-30T00:36:07.410Z,5.20
2018-06-30T00:37:07.420Z,4.80
2018-06-30T00:38:07.445Z,4.70
2018-06-30T00:39:07.466Z,5.20
2018-06-30T00:40:07.492Z,5.30
2018-06-30T00:41:07.511Z,5.10
2018-06-30T00:42:07.531Z,5.40
2018-06-30T00:43:07.553Z,5.00
2018-06-30T00:44:07.577Z,5.60
2018-06-30T00:45:07.597Z,5.50
2018-06-30T00:46:07.617Z,6.30
2018-06-30T00:47:07.641Z,5.40
2018-06-30T00:48:07.660Z,5.60
2018-06-30T00:49:07.700Z,5.80
2018-06-30T00:50:07.704Z,5.60
2018-06-30T00:51:07.723Z,5.90
2018-06-30T00:52:07.744Z,6.20
2018-06-30T00:53:07.767Z,5.70
2018-06-30T00:54:07.788Z,6.00
2018-06-30T00:55:07.807Z,6.00
2018-06-30T00:56:07.830Z,5.90
2018-06-30T00:57:07.854Z,6.10
2018-06-30T00:58:07.875Z,5.40
2018-06-30T00:59:07.895Z,5.70
2018-06-30T01:00:07.914Z,6.00
2018-06-30T01:01:07.939Z,5.70
2018-06-30T01:02:07.960Z,5.70
2018-06-30T01:03:07.980Z,6.30
2018-06-30T01:04:08.004Z,6.10
2018-06-30T01:05:08.022Z,6.70
2018-06-30T01:06:08.043Z,6.60
2018-06-30T01:07:08.065Z,5.80
2018-06-30T01:08:08.092Z,6.10
2018-06-30T01:09:08.130Z,6.60
2018-06-30T01:10:08.133Z,6.80
2018-06-30T01:11:08.152Z,6.00
2018-06-30T01:12:08.176Z,6.40
2018-06-30T01:13:08.194Z,6.40
2018-06-30T01:14:08.213Z,6.40
2018-06-30T01:15:08.237Z,6.80
2018-06-30T01:16:08.261Z,6.60
2018-06-30T01:17:08.279Z,7.00
2018-06-30T01:18:08.306Z,6.10
2018-06-30T01:19:08.320Z,6.30
2018-06-30T01:20:08.344Z,6.60
2018-06-30T01:21:08.366Z,6.90
2018-06-30T01:22:08.385Z,6.90
2018-06-30T01:23:08.410Z,7.10
2018-06-30T01:24:08.429Z,6.50
2018-06-30T01:25:08.451Z,6.80
2018-06-30T01:26:08.475Z,7.00
2018-06-30T01:27:08.491Z,6.60
2018-06-30T01:28:08.516Z,7.20
2018-06-30T01:29:08.536Z,7.30
2018-06-30T01:30:08.558Z,7.30
2018-06-30T01:31:08.579Z,7.10
2018-06-30T01:32:08.599Z,7.10
2018-06-30T01:33:08.620Z,7.30
2018-06-30T01:34:08.643Z,6.90
2018-06-30T01:35:08.662Z,7.30
2018-06-30T01:36:08.684Z,7.50
2018-06-30T01:37:08.707Z,7.00
2018-06-30T01:38:08.727Z,7.70
2018-06-30T01:39:08.748Z,7.00
2018-06-30T01:40:08.767Z,7.30
2018-06-30T01:41:08.789Z,7.60
2018-06-30T01:42:08.812Z,7.60
2018-06-30T01:43:08.836Z,7.80
2018-06-30T01:44:08.855Z,7.80
2018-06-30T01:45:08.875Z,7.00
2018-06-30T01:46:08.897Z,8.10
2018-06-30T01:47:08.923Z,8.50
2018-06-30T01:48:08.940Z,7.80
2018-06-30T01:49:08.962Z,7.60
2018-06-30T01:50:08.982Z,8.40
2018-06-30T01:51:09.013Z,8.70
2018-06-30T01:52:09.026Z,7.70
2018-06-30T01:53:09.046Z,8.30
2018-06-30T01:54:09.066Z,8.60
2018-06-30T02:23:57.261Z,8.40
2018-06-30T02:24:57.286Z,11.80
2018-06-30T02:26:50.169Z,12.50
2018-06-30T02:27:50.178Z,12.50
2018-06-30T02:29:43.116Z,13.10
2018-06-30T02:30:43.132Z,12.80
2018-06-30T02:31:43.126Z,13.10
2018-06-30T02:32:43.146Z,13.00
2018-06-30T02:33:43.161Z,13.10
2018-06-30T02:34:43.185Z,12.80
2018-06-30T02:35:43.196Z,13.00
2018-06-30T02:36:43.216Z,13.10
2018-06-30T02:37:43.234Z,13.90
2018-06-30T02:38:43.255Z,13.10
2018-06-30T02:39:43.275Z,13.60
2018-06-30T02:40:43.291Z,13.30
2018-06-30T02:41:43.314Z,12.90
2018-06-30T02:42:43.330Z,12.40
2018-06-30T02:43:43.351Z,14.10
2018-06-30T02:44:43.371Z,13.30
2018-06-30T02:45:43.391Z,13.00
2018-06-30T02:46:43.410Z,13.00
2018-06-30T02:47:43.428Z,13.30
2018-06-30T02:48:43.451Z,14.40
2018-06-30T02:49:43.469Z,13.80
2018-06-30T02:50:43.489Z,14.10
2018-06-30T02:51:43.511Z,14.40
2018-06-30T02:52:43.531Z,13.70
2018-06-30T02:53:43.550Z,14.40
2018-06-30T02:54:43.568Z,15.20
2018-06-30T02:55:43.588Z,14.00
2018-06-30T02:56:43.610Z,14.70
2018-06-30T02:57:43.629Z,14.10
2018-06-30T02:58:43.651Z,15.10
2018-06-30T02:59:43.670Z,14.40
2018-06-30T03:00:43.695Z,14.70
2018-06-30T03:01:43.709Z,14.00
2018-06-30T03:02:43.731Z,14.70
2018-06-30T03:03:43.751Z,14.10
2018-06-30T03:04:43.771Z,14.80
2018-06-30T03:05:43.793Z,14.30
2018-06-30T03:06:43.813Z,14.80
2018-06-30T03:07:43.834Z,14.10
2018-06-30T03:08:43.857Z,15.20
2018-06-30T03:09:43.873Z,14.20
2018-06-30T03:10:43.892Z,15.30
2018-06-30T03:11:43.918Z,14.50
2018-06-30T03:12:43.932Z,15.20
2018-06-30T03:13:43.958Z,15.20
2018-06-30T03:14:43.976Z,15.00
2018-06-30T03:15:43.997Z,14.40
2018-06-30T03:16:44.014Z,15.50
2018-06-30T03:17:44.036Z,15.30
2018-06-30T03:18:44.057Z,14.90
2018-06-30T03:19:44.078Z,15.00
2018-06-30T03:20:44.098Z,15.00
2018-06-30T03:21:44.117Z,15.40
2018-06-30T03:22:44.137Z,15.10
2018-06-30T03:23:44.161Z,15.70
2018-06-30T03:24:44.179Z,15.80
2018-06-30T03:25:44.198Z,15.90
2018-06-30T03:26:44.220Z,15.50
2018-06-30T03:27:44.245Z,15.30
2018-06-30T03:28:44.262Z,16.90
2018-06-30T03:29:44.283Z,16.10
2018-06-30T03:30:44.302Z,15.90
2018-06-30T03:31:44.360Z,15.90
2018-06-30T03:32:44.343Z,15.90
2018-06-30T03:33:44.369Z,15.70
2018-06-30T03:34:44.382Z,16.10
2018-06-30T03:35:44.407Z,16.60
2018-06-30T03:36:44.425Z,17.00
2018-06-30T03:37:44.447Z,16.50
2018-06-30T03:38:44.472Z,16.40
2018-06-30T03:39:44.495Z,16.00
2018-06-30T03:40:44.508Z,16.80
2018-06-30T03:41:44.529Z,16.50
2018-06-30T03:42:44.550Z,16.50
2018-06-30T03:43:44.571Z,17.50
2018-06-30T03:44:44.589Z,17.10
2018-06-30T03:45:44.609Z,16.60
2018-06-30T03:46:44.631Z,17.20
2018-06-30T03:47:44.651Z,16.90
2018-06-30T03:48:44.675Z,17.30
2018-06-30T03:49:44.693Z,17.80
2018-06-30T03:50:44.720Z,18.30
2018-06-30T03:51:44.736Z,17.40
2018-06-30T03:52:44.754Z,17.00
2018-06-30T03:53:44.775Z,17.30
2018-06-30T03:54:44.803Z,17.60
2018-06-30T03:55:44.819Z,16.80
2018-06-30T03:56:44.836Z,18.00
2018-06-30T03:57:44.859Z,16.80
2018-06-30T03:58:44.879Z,16.80
2018-06-30T03:59:44.908Z,17.20
2018-06-30T04:00:44.922Z,16.40
2018-06-30T04:01:44.940Z,16.90
2018-06-30T04:02:44.960Z,16.80
2018-06-30T04:03:44.981Z,16.60
2018-06-30T04:04:45.003Z,15.90
2018-06-30T04:05:45.023Z,16.70
2018-06-30T04:06:45.047Z,16.40
2018-06-30T04:07:45.063Z,16.60
2018-06-30T04:08:45.084Z,17.30
2018-06-30T04:09:45.105Z,16.20
2018-06-30T04:10:45.126Z,16.30
2018-06-30T04:11:45.151Z,16.80
2018-06-30T04:12:45.170Z,17.30
2018-06-30T04:13:45.190Z,17.50
2018-06-30T04:14:45.214Z,16.60
2018-06-30T04:15:45.231Z,17.40
2018-06-30T04:16:45.266Z,17.20
2018-06-30T04:17:45.273Z,16.50
2018-06-30T04:18:45.293Z,16.80
2018-06-30T04:19:45.316Z,17.00
2018-06-30T04:20:45.332Z,17.50
2018-06-30T04:21:45.356Z,17.40
2018-06-30T04:22:45.375Z,17.10
2018-06-30T04:23:45.397Z,16.30
2018-06-30T04:24:45.415Z,17.00
2018-06-30T04:25:45.440Z,17.50
2018-06-30T04:26:45.464Z,16.80
2018-06-30T04:27:45.479Z,17.00
2018-06-30T04:28:45.500Z,16.50
2018-06-30T04:29:45.518Z,17.70
2018-06-30T04:30:45.539Z,17.40
2018-06-30T04:31:45.565Z,17.20
2018-06-30T04:32:45.581Z,17.10
2018-06-30T04:33:45.601Z,17.00
2018-06-30T04:34:45.624Z,17.40
2018-06-30T04:35:45.646Z,16.50
2018-06-30T04:36:45.665Z,17.90
2018-06-30T04:37:45.686Z,17.10
2018-06-30T04:38:45.705Z,17.20
2018-06-30T04:39:45.731Z,16.60
2018-06-30T04:40:45.748Z,17.00
2018-06-30T04:41:45.772Z,16.90
2018-06-30T04:42:45.791Z,17.50
2018-06-30T04:43:45.811Z,18.20
2018-06-30T04:44:45.834Z,17.80
2018-06-30T04:45:45.853Z,18.20
2018-06-30T04:46:45.874Z,17.60
2018-06-30T04:47:45.895Z,17.20
2018-06-30T04:48:45.915Z,17.60
2018-06-30T04:49:45.935Z,16.80
2018-06-30T04:50:45.958Z,17.00
2018-06-30T04:51:45.979Z,15.80
2018-06-30T04:52:45.998Z,16.60
2018-06-30T04:53:46.022Z,17.90
2018-06-30T04:54:46.044Z,17.40
2018-06-30T04:55:46.064Z,17.00
2018-06-30T04:56:46.084Z,17.00
2018-06-30T04:57:46.104Z,16.80
2018-06-30T04:58:46.127Z,17.10
2018-06-30T04:59:46.147Z,17.70
2018-06-30T05:00:46.166Z,17.60
2018-06-30T05:01:46.188Z,17.30
2018-06-30T05:02:46.211Z,16.40
2018-06-30T05:03:46.232Z,16.80
2018-06-30T05:04:46.252Z,17.00
2018-06-30T05:05:46.276Z,17.60
2018-06-30T05:06:46.296Z,17.00
2018-06-30T05:07:46.318Z,17.20
2018-06-30T05:08:46.333Z,16.90
2018-06-30T05:09:46.358Z,16.70
2018-06-30T05:10:46.379Z,16.70
2018-06-30T05:11:46.402Z,17.10
2018-06-30T05:12:46.434Z,17.20
2018-06-30T05:13:46.441Z,16.70
2018-06-30T05:14:46.473Z,16.50
2018-06-30T05:15:46.485Z,16.90
2018-06-30T05:16:46.504Z,17.30
2018-06-30T05:17:46.526Z,17.50
2018-06-30T05:18:46.549Z,17.30
2018-06-30T05:19:46.569Z,16.80
2018-06-30T05:20:46.588Z,17.00
2018-06-30T05:21:46.615Z,17.80
2018-06-30T05:22:46.632Z,17.20
2018-06-30T05:23:46.654Z,17.80
2018-06-30T05:24:46.676Z,17.60
2018-06-30T05:25:46.697Z,16.80
2018-06-30T05:26:46.720Z,16.70
2018-06-30T05:27:46.741Z,15.70
2018-06-30T05:28:46.764Z,15.50
2018-06-30T05:29:46.784Z,14.40
2018-06-30T05:30:46.809Z,15.40
2018-06-30T05:31:46.829Z,14.20
2018-06-30T05:32:46.847Z,13.10
2018-06-30T05:33:46.873Z,13.40
2018-06-30T05:34:46.896Z,12.70
2018-06-30T05:35:46.920Z,13.40
2018-06-30T05:36:46.943Z,14.00
2018-06-30T05:37:46.966Z,13.00
2018-06-30T05:38:46.993Z,13.60
2018-06-30T05:39:47.019Z,13.00
2018-06-30T05:40:47.042Z,12.60
2018-06-30T05:41:47.067Z,13.60
2018-06-30T05:42:47.094Z,13.00
2018-06-30T05:43:47.120Z,13.00
2018-06-30T05:44:47.146Z,13.80
2018-06-30T05:45:47.171Z,13.30
2018-06-30T05:46:47.198Z,12.90
2018-06-30T05:47:47.225Z,13.10
2018-06-30T05:48:47.254Z,12.80
2018-06-30T05:49:47.276Z,12.40
2018-06-30T05:50:47.304Z,13.30
2018-06-30T05:51:47.336Z,13.00
2018-06-30T05:52:47.361Z,13.40
2018-06-30T05:53:47.394Z,12.70
2018-06-30T05:54:47.415Z,13.80
2018-06-30T05:55:47.462Z,13.10
2018-06-30T05:56:47.474Z,12.80
2018-06-30T05:57:47.508Z,12.50
2018-06-30T05:58:47.532Z,12.70
2018-06-30T05:59:47.560Z,13.10
2018-06-30T06:00:47.590Z,13.70
2018-06-30T06:01:47.620Z,14.00
2018-06-30T06:02:47.646Z,13.90
2018-06-30T06:03:47.676Z,13.30
2018-06-30T06:04:47.706Z,13.00
2018-06-30T06:05:47.736Z,12.80
2018-06-30T06:06:47.762Z,13.00
2018-06-30T06:07:47.792Z,13.20
2018-06-30T06:08:47.819Z,13.40
2018-06-30T06:09:47.871Z,12.70
2018-06-30T06:10:47.881Z,13.60
2018-06-30T06:11:47.912Z,13.50
2018-06-30T06:12:47.989Z,13.60
2018-06-30T06:13:47.971Z,13.40
2018-06-30T06:14:48.005Z,14.50
2018-06-30T06:15:48.030Z,12.40
2018-06-30T06:16:48.063Z,13.40
2018-06-30T06:17:48.095Z,12.60
2018-06-30T06:18:48.122Z,12.90
2018-06-30T06:19:48.147Z,13.50
2018-06-30T06:20:48.179Z,13.60
2018-06-30T06:21:48.207Z,13.00
2018-06-30T06:22:48.247Z,13.20
2018-06-30T06:23:48.268Z,13.20
2018-06-30T06:24:48.303Z,13.70
2018-06-30T06:25:48.346Z,13.70
2018-06-30T06:26:48.363Z,13.90
2018-06-30T06:27:48.395Z,13.60
2018-06-30T06:28:48.421Z,12.50
2018-06-30T06:29:48.455Z,13.20
2018-06-30T06:30:48.484Z,14.20
2018-06-30T06:31:48.518Z,14.30
2018-06-30T06:32:48.607Z,13.50
2018-06-30T06:33:48.577Z,14.10
2018-06-30T06:34:48.604Z,12.90
2018-06-30T06:35:48.636Z,13.20
2018-06-30T06:36:48.667Z,13.20
2018-06-30T06:37:48.712Z,13.40
2018-06-30T06:38:48.731Z,14.00
2018-06-30T06:39:48.767Z,13.70
2018-06-30T06:40:48.791Z,13.00
2018-06-30T06:41:48.835Z,14.00
2018-06-30T06:42:48.855Z,14.30
2018-06-30T06:43:48.885Z,13.60
2018-06-30T06:44:48.916Z,13.40
2018-06-30T06:45:48.946Z,13.20
2018-06-30T06:46:48.975Z,13.50
2018-06-30T06:47:49.008Z,13.80
2018-06-30T06:48:49.038Z,13.50
2018-06-30T06:49:49.068Z,13.20
2018-06-30T06:50:49.103Z,13.80
2018-06-30T06:51:49.132Z,12.50
2018-06-30T06:52:49.159Z,12.90
2018-06-30T06:53:49.193Z,13.10
2018-06-30T06:54:49.225Z,12.60
2018-06-30T06:55:49.251Z,12.60
2018-06-30T06:56:49.281Z,13.10
2018-06-30T06:57:49.311Z,13.00
2018-06-30T06:58:49.348Z,12.70
2018-06-30T06:59:49.377Z,13.40
2018-06-30T07:00:49.409Z,12.80
2018-06-30T07:01:49.440Z,12.90
2018-06-30T07:02:49.470Z,13.40
2018-06-30T07:03:49.504Z,13.70
2018-06-30T07:04:49.528Z,12.90
2018-06-30T07:05:49.557Z,13.60
2018-06-30T07:06:49.590Z,13.70
2018-06-30T07:07:49.622Z,13.10
2018-06-30T07:08:49.655Z,13.00
2018-06-30T07:09:49.683Z,13.00
2018-06-30T07:10:49.718Z,11.60
2018-06-30T07:11:49.744Z,12.70
2018-06-30T07:12:49.774Z,12.70
2018-06-30T07:13:49.809Z,12.60
2018-06-30T07:14:49.837Z,12.20
2018-06-30T07:15:49.876Z,11.70
2018-06-30T07:16:49.894Z,11.90
2018-06-30T07:17:49.926Z,11.70
2018-06-30T07:18:49.958Z,12.80
2018-06-30T07:19:49.988Z,11.60
2018-06-30T07:20:50.021Z,12.30
2018-06-30T07:21:50.049Z,12.20
2018-06-30T07:22:50.079Z,11.70
2018-06-30T07:23:50.110Z,11.60
2018-06-30T07:24:50.146Z,11.90
2018-06-30T07:25:50.173Z,11.30
2018-06-30T07:26:50.201Z,12.70
2018-06-30T07:27:50.235Z,11.30
2018-06-30T07:28:50.263Z,11.80
2018-06-30T07:29:50.295Z,11.10
2018-06-30T07:30:50.326Z,10.60
2018-06-30T07:31:50.359Z,10.90
2018-06-30T07:32:50.386Z,10.20
2018-06-30T07:33:50.439Z,9.90
2018-06-30T07:34:50.452Z,10.30
2018-06-30T07:35:50.482Z,9.90
2018-06-30T07:36:50.511Z,10.00
2018-06-30T07:37:50.542Z,10.30
2018-06-30T07:38:50.654Z,9.90
2018-06-30T07:39:50.604Z,9.20
2018-06-30T07:40:50.635Z,8.60
2018-06-30T07:41:50.665Z,9.20
2018-06-30T07:42:50.696Z,9.10
2018-06-30T07:43:50.727Z,9.00
2018-06-30T07:44:50.759Z,8.20
2018-06-30T07:45:50.792Z,8.40
2018-06-30T07:46:50.818Z,8.10
2018-06-30T07:47:50.853Z,8.60
2018-06-30T07:48:50.886Z,7.60
2018-06-30T07:49:50.913Z,7.90
2018-06-30T07:50:51.085Z,8.00
2018-06-30T07:51:50.974Z,7.30
2018-06-30T07:52:51.071Z,8.20
2018-06-30T07:53:51.180Z,8.10
2018-06-30T07:54:51.245Z,7.20
2018-06-30T07:55:51.099Z,7.80
2018-06-30T07:56:51.124Z,7.10
2018-06-30T07:57:51.158Z,7.20
2018-06-30T07:58:51.333Z,6.70
2018-06-30T07:59:51.216Z,6.30
2018-06-30T08:00:51.245Z,7.00
2018-06-30T08:01:51.279Z,7.00
2018-06-30T08:02:51.307Z,8.10
2018-06-30T08:03:51.337Z,7.20
2018-06-30T08:04:51.370Z,7.60
2018-06-30T08:05:51.400Z,6.80
2018-06-30T08:06:51.428Z,7.40
2018-06-30T08:07:51.457Z,7.10
2018-06-30T08:08:51.488Z,6.90
2018-06-30T08:09:51.519Z,6.80
2018-06-30T08:10:51.558Z,7.00
2018-06-30T08:11:51.580Z,7.30
2018-06-30T08:12:51.607Z,7.10
2018-06-30T08:13:51.649Z,8.40
2018-06-30T08:14:51.665Z,7.00
2018-06-30T08:15:51.703Z,7.10
2018-06-30T08:16:51.726Z,7.80
2018-06-30T08:17:51.760Z,7.10
2018-06-30T08:18:51.785Z,7.00
2018-06-30T08:19:51.821Z,6.70
2018-06-30T08:20:51.846Z,7.20
2018-06-30T08:21:51.905Z,7.00
2018-06-30T08:22:51.924Z,6.90
2018-06-30T08:23:51.944Z,7.10
2018-06-30T08:24:51.965Z,7.10
2018-06-30T08:25:51.999Z,7.50
2018-06-30T08:26:52.025Z,7.90
2018-06-30T08:27:52.056Z,6.70
2018-06-30T08:28:52.099Z,5.90
2018-06-30T08:29:52.119Z,7.00
2018-06-30T08:30:52.142Z,6.70
2018-06-30T08:31:52.175Z,6.30
2018-06-30T08:32:52.206Z,7.00
2018-06-30T08:33:52.231Z,6.40
2018-06-30T08:34:52.261Z,7.20
2018-06-30T08:35:52.287Z,6.80
2018-06-30T08:36:52.319Z,6.80
2018-06-30T08:37:52.348Z,7.10
2018-06-30T08:38:52.379Z,7.70
2018-06-30T08:39:52.404Z,6.90
2018-06-30T08:40:52.436Z,6.90
2018-06-30T08:41:52.463Z,6.30
2018-06-30T08:42:52.492Z,7.10
2018-06-30T08:43:52.523Z,6.40
2018-06-30T08:44:52.549Z,6.90
2018-06-30T08:45:52.579Z,6.50
2018-06-30T08:46:52.607Z,7.00
2018-06-30T08:47:52.637Z,6.70
2018-06-30T08:48:52.666Z,6.70
2018-06-30T08:49:52.693Z,7.00
2018-06-30T08:50:52.725Z,7.80
2018-06-30T08:51:52.751Z,7.40
2018-06-30T08:52:52.781Z,6.70
2018-06-30T08:53:52.804Z,7.10
2018-06-30T08:54:52.834Z,7.20
2018-06-30T08:55:52.860Z,7.20
2018-06-30T08:56:52.924Z,6.80
2018-06-30T08:57:52.914Z,6.70
2018-06-30T08:58:52.947Z,7.40
2018-06-30T08:59:52.971Z,6.90
2018-06-30T09:00:52.999Z,7.20
2018-06-30T09:01:53.030Z,6.70
2018-06-30T09:02:53.054Z,6.80
2018-06-30T09:03:53.082Z,6.60
2018-06-30T09:04:53.108Z,6.40
2018-06-30T09:05:53.136Z,6.30
2018-06-30T09:06:53.169Z,6.90
2018-06-30T09:07:53.191Z,7.30
2018-06-30T09:08:53.218Z,6.30
2018-06-30T09:09:53.247Z,6.20
2018-06-30T09:10:53.283Z,6.60
2018-06-30T09:11:53.314Z,7.20
2018-06-30T09:12:53.328Z,6.80
2018-06-30T09:13:53.355Z,6.20
2018-06-30T09:14:53.379Z,6.10
2018-06-30T09:15:53.409Z,5.90
2018-06-30T09:16:53.440Z,5.80
2018-06-30T09:17:53.462Z,6.70
2018-06-30T09:18:53.491Z,6.50
2018-06-30T09:19:53.516Z,6.50
2018-06-30T09:20:53.545Z,7.10
2018-06-30T09:21:53.579Z,6.30
2018-06-30T09:22:53.600Z,5.80
2018-06-30T09:23:53.628Z,5.70
2018-06-30T09:24:53.655Z,6.50
2018-06-30T09:25:53.681Z,5.60
2018-06-30T09:26:53.712Z,6.00
2018-06-30T09:27:53.734Z,6.20
2018-06-30T09:28:53.761Z,6.70
2018-06-30T09:29:53.786Z,6.80
2018-06-30T09:30:53.816Z,6.60
2018-06-30T09:31:53.851Z,6.80
2018-06-30T09:32:53.869Z,6.50
2018-06-30T09:33:53.898Z,6.90
2018-06-30T09:34:53.924Z,7.00
2018-06-30T09:35:53.949Z,6.60
2018-06-30T09:36:53.976Z,6.70
2018-06-30T09:37:54.031Z,6.70
2018-06-30T09:38:54.029Z,7.20
2018-06-30T09:39:54.057Z,7.00
2018-06-30T09:40:54.081Z,6.30
2018-06-30T09:41:54.114Z,7.00
2018-06-30T09:42:54.137Z,6.70
2018-06-30T09:43:54.164Z,6.20
2018-06-30T09:44:54.192Z,6.20
2018-06-30T09:45:54.220Z,5.90
2018-06-30T09:46:54.247Z,6.20
2018-06-30T09:47:54.273Z,6.60
2018-06-30T09:48:54.296Z,6.10
2018-06-30T09:49:54.324Z,5.70
2018-06-30T09:50:54.354Z,5.70
2018-06-30T09:51:54.377Z,5.50
2018-06-30T09:52:54.401Z,5.60
2018-06-30T09:53:54.429Z,5.50
2018-06-30T09:54:54.458Z,5.50
2018-06-30T09:55:54.486Z,5.90
2018-06-30T09:56:54.509Z,5.10
2018-06-30T09:57:54.536Z,5.50
2018-06-30T09:58:54.563Z,5.70
2018-06-30T09:59:54.591Z,4.90
2018-06-30T10:00:54.615Z,5.20
2018-06-30T10:01:54.644Z,5.30
2018-06-30T10:02:54.671Z,5.60
2018-06-30T10:03:54.698Z,5.60
2018-06-30T10:04:54.726Z,5.00
2018-06-30T10:05:54.750Z,5.30
2018-06-30T10:06:54.832Z,5.10
2018-06-30T10:07:54.803Z,5.00
2018-06-30T10:08:54.833Z,5.50
2018-06-30T10:09:54.859Z,5.30
2018-06-30T10:10:54.886Z,5.70
2018-06-30T10:11:54.913Z,5.20
2018-06-30T10:12:54.939Z,5.00
2018-06-30T10:13:54.966Z,5.30
2018-06-30T10:14:54.992Z,5.50
2018-06-30T10:15:55.022Z,4.90
2018-06-30T10:16:55.050Z,5.20
2018-06-30T10:17:55.089Z,4.80
2018-06-30T10:18:55.103Z,4.90
2018-06-30T10:19:55.128Z,4.80
2018-06-30T10:20:55.256Z,5.00
2018-06-30T10:21:55.179Z,4.90
2018-06-30T10:22:55.209Z,5.40
2018-06-30T10:23:55.239Z,5.40
2018-06-30T10:24:55.263Z,4.90
2018-06-30T10:25:55.291Z,5.40
2018-06-30T10:26:55.318Z,5.30
2018-06-30T10:27:55.347Z,6.00
2018-06-30T10:28:55.370Z,5.50
2018-06-30T10:29:55.398Z,5.50
2018-06-30T10:30:55.428Z,4.70
2018-06-30T10:31:55.452Z,4.70
2018-06-30T10:32:55.478Z,5.10
2018-06-30T10:33:55.513Z,5.20
2018-06-30T10:34:55.532Z,5.60
2018-06-30T10:35:55.561Z,5.30
2018-06-30T10:36:55.587Z,5.20
2018-06-30T10:37:55.612Z,5.20
2018-06-30T10:38:55.653Z,4.70
2018-06-30T10:39:55.683Z,5.10
2018-06-30T10:40:55.693Z,4.80
2018-06-30T10:41:55.723Z,5.10
2018-06-30T10:42:55.748Z,5.00
2018-06-30T10:43:55.785Z,5.40
2018-06-30T10:44:55.801Z,5.00
2018-06-30T10:45:55.826Z,5.40
2018-06-30T10:46:55.856Z,5.10
2018-06-30T10:47:55.885Z,4.90
2018-06-30T10:48:55.909Z,4.20
2018-06-30T10:49:55.937Z,5.00
2018-06-30T10:50:55.964Z,4.50
2018-06-30T10:51:55.994Z,4.80
2018-06-30T10:52:56.020Z,4.40
2018-06-30T10:53:56.047Z,4.50
2018-06-30T10:54:56.075Z,4.70
2018-06-30T10:55:56.099Z,4.60
2018-06-30T10:56:56.124Z,5.00
2018-06-30T10:57:56.152Z,4.40
2018-06-30T10:58:56.180Z,5.30
2018-06-30T10:59:56.218Z,5.10
2018-06-30T11:00:56.233Z,5.00
2018-06-30T11:01:56.259Z,4.80
2018-06-30T11:02:56.284Z,4.60
2018-06-30T11:03:56.374Z,4.70
2018-06-30T11:04:56.340Z,4.20
2018-06-30T11:05:56.423Z,4.90
2018-06-30T11:06:56.394Z,4.20
2018-06-30T11:07:56.423Z,4.80
2018-06-30T11:08:56.445Z,5.10
2018-06-30T11:09:56.470Z,5.10
2018-06-30T11:10:56.511Z,4.30
2018-06-30T11:11:56.530Z,4.30
2018-06-30T11:12:56.555Z,4.40
2018-06-30T11:13:56.582Z,4.90
2018-06-30T11:14:56.607Z,4.90
2018-06-30T11:15:56.634Z,4.50
2018-06-30T11:16:56.669Z,4.70
2018-06-30T11:17:56.691Z,4.80
2018-06-30T11:18:56.719Z,5.00
2018-06-30T11:19:56.741Z,4.40
2018-06-30T11:20:56.769Z,4.10
2018-06-30T11:21:56.800Z,4.70
2018-06-30T11:22:56.824Z,4.40
2018-06-30T11:23:56.851Z,4.30
2018-06-30T11:24:56.875Z,4.40
2018-06-30T11:25:56.904Z,4.50
2018-06-30T11:26:56.931Z,4.40
2018-06-30T11:27:56.958Z,4.70
2018-06-30T11:28:56.986Z,4.10
2018-06-30T11:29:57.011Z,4.50
2018-06-30T11:30:57.039Z,4.90
2018-06-30T11:31:57.071Z,4.30
2018-06-30T11:32:57.093Z,4.60
2018-06-30T11:33:57.118Z,4.00
2018-06-30T11:34:57.147Z,4.10
2018-06-30T11:35:57.177Z,3.80
2018-06-30T11:36:57.199Z,4.40
2018-06-30T11:37:57.229Z,4.00
2018-06-30T11:38:57.256Z,4.60
2018-06-30T11:39:57.282Z,4.40
2018-06-30T11:40:57.385Z,3.90
2018-06-30T11:41:57.343Z,4.30
2018-06-30T11:42:57.363Z,4.50
2018-06-30T11:43:57.392Z,4.20
2018-06-30T11:44:57.420Z,4.10
2018-06-30T11:45:57.445Z,4.10
2018-06-30T11:46:57.473Z,4.00
2018-06-30T11:47:57.498Z,4.10
2018-06-30T11:48:57.525Z,4.00
2018-06-30T11:49:57.561Z,4.00
2018-06-30T11:50:57.583Z,4.10
2018-06-30T11:51:57.609Z,4.20
2018-06-30T11:52:57.637Z,3.90
2018-06-30T11:53:57.661Z,4.00
2018-06-30T11:54:57.689Z,4.00
2018-06-30T11:55:57.715Z,4.20
2018-06-30T11:56:57.742Z,3.90
2018-06-30T11:57:57.772Z,3.70
2018-06-30T11:58:57.798Z,3.80
2018-06-30T11:59:57.824Z,3.90
2018-06-30T12:00:57.850Z,4.00
2018-06-30T12:01:57.929Z,3.90
2018-06-30T12:02:57.905Z,4.00
2018-06-30T12:03:57.932Z,4.00
2018-06-30T12:04:57.958Z,3.80
2018-06-30T12:05:57.988Z,3.80
2018-06-30T12:06:58.016Z,3.80
2018-06-30T12:07:58.042Z,4.00
2018-06-30T12:08:58.068Z,4.00
2018-06-30T12:09:58.094Z,3.90
2018-06-30T12:10:58.123Z,3.70
2018-06-30T12:11:58.151Z,3.80
2018-06-30T12:12:58.175Z,3.70
2018-06-30T12:13:58.203Z,4.10
2018-06-30T12:14:58.231Z,3.70
2018-06-30T12:15:58.259Z,3.90
2018-06-30T12:16:58.284Z,3.90
2018-06-30T12:17:58.317Z,3.70
2018-06-30T12:18:58.342Z,4.20
2018-06-30T12:19:58.371Z,4.10
2018-06-30T12:20:58.395Z,3.80
2018-06-30T12:21:58.420Z,3.60
2018-06-30T12:22:58.451Z,3.90
2018-06-30T12:23:58.475Z,4.00
2018-06-30T12:24:58.505Z,3.50
2018-06-30T12:25:58.533Z,3.80
2018-06-30T12:26:58.564Z,4.10
2018-06-30T12:27:58.587Z,3.70
2018-06-30T12:28:58.614Z,3.80
2018-06-30T12:29:58.641Z,4.00
2018-06-30T12:30:58.675Z,3.80
2018-06-30T12:31:58.769Z,3.70
2018-06-30T12:32:58.723Z,4.10
2018-06-30T12:33:58.752Z,4.20
2018-06-30T12:34:58.789Z,4.20
2018-06-30T12:35:58.806Z,3.70
2018-06-30T12:36:58.834Z,3.70
2018-06-30T12:37:58.862Z,3.90
2018-06-30T12:38:58.908Z,4.30
2018-06-30T12:39:58.916Z,4.10
2018-06-30T12:40:58.943Z,4.00
2018-06-30T12:41:58.974Z,3.70
2018-06-30T12:42:58.999Z,3.70
2018-06-30T12:43:59.026Z,3.80
2018-06-30T12:44:59.099Z,4.00
2018-06-30T12:45:59.080Z,3.70
2018-06-30T12:46:59.107Z,4.00
2018-06-30T12:47:59.135Z,3.70
2018-06-30T12:48:59.161Z,3.70
2018-06-30T12:49:59.188Z,3.80
2018-06-30T12:50:59.216Z,3.70
2018-06-30T12:51:59.243Z,3.50
2018-06-30T12:52:59.269Z,3.70
2018-06-30T12:53:59.298Z,3.40
2018-06-30T12:54:59.325Z,3.50
2018-06-30T12:55:59.349Z,3.50
2018-06-30T12:56:59.378Z,3.40
2018-06-30T12:57:59.406Z,3.70
2018-06-30T12:58:59.435Z,3.30
2018-06-30T12:59:59.465Z,3.10
2018-06-30T13:00:59.487Z,3.20
2018-06-30T13:01:59.514Z,3.50
2018-06-30T13:02:59.577Z,3.70
2018-06-30T13:03:59.572Z,3.20
2018-06-30T13:04:59.594Z,3.30
2018-06-30T13:05:59.638Z,3.20
2018-06-30T13:06:59.648Z,3.30
2018-06-30T13:07:59.702Z,3.70
2018-06-30T13:08:59.706Z,3.50
2018-06-30T13:09:59.732Z,3.20
2018-06-30T13:10:59.761Z,3.10
2018-06-30T13:11:59.784Z,3.30
2018-06-30T13:12:59.810Z,3.50
2018-06-30T13:13:59.840Z,3.20
2018-06-30T13:14:59.872Z,3.20
2018-06-30T13:15:59.898Z,3.20
2018-06-30T13:16:59.923Z,3.10
2018-06-30T13:17:59.952Z,3.20
2018-06-30T13:19:00.031Z,3.10
2018-06-30T13:20:00.034Z,3.00
2018-06-30T13:21:00.031Z,3.20
2018-06-30T13:22:00.061Z,3.00
2018-06-30T13:23:00.087Z,3.20
2018-06-30T13:24:00.117Z,2.90
2018-06-30T13:25:00.199Z,2.90
2018-06-30T13:26:00.168Z,2.90
2018-06-30T13:27:00.198Z,2.80
2018-06-30T13:28:00.226Z,2.70
2018-06-30T13:29:00.248Z,2.80
2018-06-30T13:30:00.280Z,2.80
2018-06-30T13:31:00.305Z,2.90
2018-06-30T13:32:00.358Z,2.80
2018-06-30T13:33:00.362Z,3.10
2018-06-30T13:34:00.394Z,3.20
2018-06-30T13:35:00.410Z,3.00
2018-06-30T13:36:00.442Z,3.00
2018-06-30T13:37:00.467Z,3.00
2018-06-30T13:38:00.499Z,3.00
2018-06-30T13:39:00.525Z,3.10